createdAt,value
2019-03-11T00:00:26.420Z,98764.68
2019-03-11T00:02:54.815Z,98763.48
2019-03-11T00:05:23.184Z,98756.39
2019-03-11T00:07:51.554Z,98750.70
2019-03-11T00:10:19.919Z,98741.09
2019-03-11T00:12:48.304Z,98737.37
2019-03-11T00:15:16.738Z,98731.34
2019-03-11T00:17:45.455Z,98731.22
2019-03-11T00:20:13.771Z,98734.00
2019-03-11T00:22:42.147Z,98730.49
2019-03-11T00:25:10.751Z,98724.98
2019-03-11T00:27:39.133Z,98728.23
2019-03-11T00:30:12.441Z,98728.95
2019-03-11T00:32:40.824Z,98733.91
2019-03-11T00:35:09.199Z,98736.68
2019-03-11T00:37:37.554Z,98736.89
2019-03-11T00:40:08.908Z,98744.15
2019-03-11T00:42:37.270Z,98734.63
2019-03-11T00:45:09.063Z,98742.81
2019-03-11T00:47:37.430Z,98733.17
2019-03-11T00:50:08.656Z,98748.24
2019-03-11T00:52:37.126Z,98744.99
2019-03-11T00:55:07.824Z,98751.36
2019-03-11T00:57:36.272Z,98753.05
2019-03-11T01:00:07.774Z,98753.05
2019-03-11T01:02:36.153Z,98738.02
2019-03-11T01:05:05.263Z,98740.84
2019-03-11T01:07:33.641Z,98747.03
2019-03-11T01:10:02.028Z,98738.83
2019-03-11T01:12:30.402Z,98729.69
2019-03-11T01:14:58.776Z,98735.70
2019-03-11T01:17:27.141Z,98723.79
2019-03-11T01:19:55.529Z,98721.73
2019-03-11T01:22:23.896Z,98728.60
2019-03-11T01:24:52.272Z,98738.81
2019-03-11T01:27:20.644Z,98744.23
2019-03-11T01:29:49.029Z,98744.70
2019-03-11T01:32:17.393Z,98737.86
2019-03-11T01:34:46.059Z,98725.69
2019-03-11T01:37:14.429Z,98718.47
2019-03-11T01:39:42.806Z,98716.55
2019-03-11T01:42:11.170Z,98714.14
2019-03-11T01:44:39.551Z,98706.68
2019-03-11T01:47:07.918Z,98706.80
2019-03-11T01:49:39.293Z,98705.25
2019-03-11T01:52:07.657Z,98702.35
2019-03-11T01:54:36.033Z,98696.20
2019-03-11T01:57:04.405Z,98699.48
2019-03-11T01:59:32.783Z,98689.11
2019-03-11T02:02:01.149Z,98687.09
2019-03-11T02:04:29.527Z,98699.00
2019-03-11T02:06:57.898Z,98700.79
2019-03-11T02:09:26.299Z,98695.63
2019-03-11T02:11:54.673Z,98702.95
2019-03-11T02:14:23.039Z,98693.81
2019-03-11T02:16:51.419Z,98682.50
2019-03-11T02:19:19.783Z,98682.16
2019-03-11T02:21:48.164Z,98684.89
2019-03-11T02:24:16.534Z,98684.54
2019-03-11T02:26:44.913Z,98685.13
2019-03-11T02:29:13.292Z,98685.72
2019-03-11T02:31:41.690Z,98688.88
2019-03-11T02:34:10.050Z,98685.97
2019-03-11T02:36:38.435Z,98690.06
2019-03-11T02:39:07.942Z,98682.25
2019-03-11T02:41:36.321Z,98681.16
2019-03-11T02:44:04.691Z,98686.58
2019-03-11T02:46:33.072Z,98680.78
2019-03-11T02:49:01.434Z,98680.08
2019-03-11T02:51:29.824Z,98674.88
2019-03-11T02:53:58.172Z,98675.86
2019-03-11T02:56:26.548Z,98682.13
2019-03-11T02:58:54.926Z,98679.56
2019-03-11T03:01:34.012Z,98681.98
2019-03-11T03:04:06.678Z,98678.10
2019-03-11T03:06:35.059Z,98677.25
2019-03-11T03:09:04.935Z,98674.37
2019-03-11T03:11:33.316Z,98679.66
2019-03-11T03:14:01.694Z,98680.61
2019-03-11T03:16:30.062Z,98674.59
2019-03-11T03:18:58.441Z,98671.72
2019-03-11T03:21:26.824Z,98678.32
2019-03-11T03:23:55.191Z,98674.48
2019-03-11T03:26:23.587Z,98666.16
2019-03-11T03:28:51.950Z,98670.62
2019-03-11T03:31:20.344Z,98667.61
2019-03-11T03:33:48.831Z,98670.48
2019-03-11T03:36:17.246Z,98676.63
2019-03-11T03:38:45.617Z,98676.25
2019-03-11T03:41:14.026Z,98678.07
2019-03-11T03:43:42.382Z,98676.48
2019-03-11T03:46:18.430Z,98675.63
2019-03-11T03:48:41.115Z,98670.84
2019-03-11T03:51:09.499Z,98668.67
2019-03-11T03:53:37.882Z,98671.78
2019-03-11T03:56:06.269Z,98671.78
2019-03-11T03:58:34.644Z,98675.41
2019-03-11T04:01:03.015Z,98676.38
2019-03-11T04:03:31.394Z,98672.50
2019-03-11T04:05:59.770Z,98682.25
2019-03-11T04:08:28.149Z,98690.65
2019-03-11T04:10:56.508Z,98688.00
2019-03-11T04:13:24.888Z,98693.88
2019-03-11T04:15:53.268Z,98700.95
2019-03-11T04:18:22.789Z,98693.14
2019-03-11T04:20:51.162Z,98688.83
2019-03-11T04:23:19.792Z,98680.91
2019-03-11T04:25:48.387Z,98688.56
2019-03-11T04:28:17.061Z,98694.83
2019-03-11T04:30:45.598Z,98695.67
2019-03-11T04:33:13.988Z,98708.62
2019-03-11T04:35:42.411Z,98695.06
2019-03-11T04:38:10.790Z,98709.59
2019-03-11T04:40:39.150Z,98700.81
2019-03-11T04:43:07.536Z,98698.29
2019-03-11T04:45:35.907Z,98708.52
2019-03-11T04:48:04.553Z,98714.27
2019-03-11T04:50:32.918Z,98708.13
2019-03-11T04:53:01.347Z,98706.06
2019-03-11T04:55:29.678Z,98706.19
2019-03-11T04:57:58.077Z,98693.09
2019-03-11T05:00:31.745Z,98693.56
2019-03-11T05:03:00.197Z,98695.73
2019-03-11T05:05:28.578Z,98694.06
2019-03-11T05:07:56.950Z,98698.49
2019-03-11T05:10:25.383Z,98698.97
2019-03-11T05:12:53.770Z,98704.87
2019-03-11T05:15:22.135Z,98704.87
2019-03-11T05:17:50.639Z,98704.13
2019-03-11T05:20:19.336Z,98712.87
2019-03-11T05:22:47.653Z,98703.28
2019-03-11T05:25:16.257Z,98717.45
2019-03-11T05:27:44.630Z,98727.29
2019-03-11T05:30:20.872Z,98721.16
2019-03-11T05:32:49.472Z,98729.46
2019-03-11T05:35:17.931Z,98727.29
2019-03-11T05:37:46.285Z,98728.22
2019-03-11T05:40:18.827Z,98736.65
2019-03-11T05:42:47.528Z,98734.48
2019-03-11T05:45:17.754Z,98731.95
2019-03-11T05:47:46.118Z,98745.16
2019-03-11T05:50:15.434Z,98745.75
2019-03-11T05:52:43.871Z,98751.87
2019-03-11T05:55:13.094Z,98751.49
2019-03-11T05:57:41.480Z,98745.01
2019-03-11T06:00:24.322Z,98754.25
2019-03-11T06:02:52.707Z,98769.64
2019-03-11T06:05:21.157Z,98759.19
2019-03-11T06:07:49.537Z,98766.25
2019-03-11T06:10:17.990Z,98772.01
2019-03-11T06:12:46.358Z,98768.55
2019-03-11T06:15:15.481Z,98767.69
2019-03-11T06:17:44.126Z,98762.41
2019-03-11T06:20:34.805Z,98782.22
2019-03-11T06:23:04.817Z,98772.50
2019-03-11T06:25:33.191Z,98769.24
2019-03-11T06:28:02.732Z,98779.42
2019-03-11T06:30:31.106Z,98781.35
2019-03-11T06:32:59.470Z,98780.50
2019-03-11T06:35:27.851Z,98788.42
2019-03-11T06:37:56.222Z,98787.11
2019-03-11T06:40:24.608Z,98788.03
2019-03-11T06:42:52.987Z,98784.19
2019-03-11T06:45:21.432Z,98776.77
2019-03-11T06:47:49.882Z,98786.48
2019-03-11T06:50:18.262Z,98775.56
2019-03-11T06:52:46.639Z,98776.49
2019-03-11T06:55:15.079Z,98780.89
2019-03-11T06:57:43.505Z,98777.42
2019-03-11T07:00:14.941Z,98773.08
2019-03-11T07:02:43.335Z,98777.42
2019-03-11T07:05:19.880Z,98788.38
2019-03-11T07:07:41.930Z,98782.33
2019-03-11T07:10:12.429Z,98787.14
2019-03-11T07:12:40.779Z,98793.27
2019-03-11T07:15:13.813Z,98803.84
2019-03-11T07:17:42.196Z,98806.20
2019-03-11T07:20:15.652Z,98802.36
2019-03-11T07:22:44.021Z,98798.86
2019-03-11T07:25:12.647Z,98803.33
2019-03-11T07:27:41.009Z,98806.42
2019-03-11T07:30:15.598Z,98810.86
2019-03-11T07:32:43.965Z,98815.78
2019-03-11T07:35:12.406Z,98829.84
2019-03-11T07:37:40.781Z,98830.77
2019-03-11T07:40:16.226Z,98825.49
2019-03-11T07:42:44.670Z,98825.49
2019-03-11T07:45:14.278Z,98828.63
2019-03-11T07:47:42.737Z,98831.84
2019-03-11T07:50:12.244Z,98840.59
2019-03-11T07:52:40.625Z,98839.38
2019-03-11T07:55:10.625Z,98844.56
2019-03-11T07:57:39.011Z,98841.09
2019-03-11T08:00:15.340Z,98854.55
2019-03-11T08:02:43.716Z,98868.33
2019-03-11T08:05:12.099Z,98866.53
2019-03-11T08:07:40.463Z,98869.64
2019-03-11T08:10:16.224Z,98862.80
2019-03-11T08:12:44.627Z,98867.69
2019-03-11T08:15:16.574Z,98878.86
2019-03-11T08:17:44.948Z,98882.55
2019-03-11T08:20:14.561Z,98879.55
2019-03-11T08:22:42.978Z,98885.76
2019-03-11T08:25:12.633Z,98887.93
2019-03-11T08:27:41.026Z,98880.48
2019-03-11T08:30:17.471Z,98888.89
2019-03-11T08:32:45.862Z,98894.06
2019-03-11T08:35:14.229Z,98895.61
2019-03-11T08:37:42.679Z,98881.91
2019-03-11T08:40:15.177Z,98890.68
2019-03-11T08:42:43.555Z,98889.72
2019-03-11T08:45:13.955Z,98892.86
2019-03-11T08:47:45.291Z,98888.51
2019-03-11T08:50:17.934Z,98896.53
2019-03-11T08:52:46.317Z,98899.28
2019-03-11T08:55:14.742Z,98909.10
2019-03-11T08:57:43.194Z,98915.23
2019-03-11T09:00:20.591Z,98899.01
2019-03-11T09:02:49.005Z,98925.91
2019-03-11T09:05:17.443Z,98929.97
2019-03-11T09:07:45.896Z,98933.43
2019-03-11T09:10:16.545Z,98954.09
2019-03-11T09:12:44.990Z,98937.28
2019-03-11T09:15:15.475Z,98933.61
2019-03-11T09:17:43.854Z,98936.89
2019-03-11T09:20:13.867Z,98937.52
2019-03-11T09:22:42.235Z,98954.05
2019-03-11T09:25:26.555Z,98958.69
2019-03-11T09:27:54.939Z,98962.30
2019-03-11T09:30:24.048Z,98957.19
2019-03-11T09:32:52.504Z,98953.73
2019-03-11T09:35:20.873Z,98958.52
2019-03-11T09:37:49.248Z,98967.64
2019-03-11T09:40:21.480Z,98964.55
2019-03-11T09:42:49.931Z,98965.57
2019-03-11T09:45:19.756Z,98964.72
2019-03-11T09:47:48.405Z,98974.64
2019-03-11T09:50:17.516Z,98972.57
2019-03-11T09:52:46.060Z,98976.99
2019-03-11T09:55:28.557Z,98989.52
2019-03-11T09:57:56.929Z,98991.69
2019-03-11T10:00:30.468Z,98983.30
2019-03-11T10:02:58.950Z,98986.20
2019-03-11T10:05:27.398Z,98989.02
2019-03-11T10:07:55.961Z,98990.16
2019-03-11T10:10:26.353Z,98997.79
2019-03-11T10:12:54.828Z,99005.39
2019-03-11T10:15:23.559Z,99005.17
2019-03-11T10:17:52.076Z,99011.95
2019-03-11T10:20:21.184Z,99015.70
2019-03-11T10:22:49.683Z,99012.24
2019-03-11T10:25:18.955Z,99016.59
2019-03-11T10:27:47.465Z,99019.30
2019-03-11T10:30:20.306Z,99019.48
2019-03-11T10:32:49.762Z,99017.27
2019-03-11T10:35:31.530Z,99015.09
2019-03-11T10:37:49.614Z,99011.20
2019-03-11T10:40:26.303Z,99017.02
2019-03-11T10:42:54.758Z,99018.34
2019-03-11T10:45:31.214Z,99021.55
2019-03-11T10:47:53.564Z,99026.16
2019-03-11T10:50:22.180Z,99018.08
2019-03-11T10:52:50.620Z,99031.75
2019-03-11T10:55:24.622Z,99024.72
2019-03-11T10:57:53.129Z,99032.36
2019-03-11T11:00:31.131Z,99019.16
2019-03-11T11:02:59.506Z,99028.09
2019-03-11T11:05:28.024Z,99023.41
2019-03-11T11:07:56.676Z,99032.94
2019-03-11T11:10:25.226Z,99033.62
2019-03-11T11:12:53.587Z,99039.63
2019-03-11T11:15:30.061Z,99051.58
2019-03-11T11:17:58.739Z,99050.28
2019-03-11T11:20:27.377Z,99047.30
2019-03-11T11:22:56.082Z,99049.33
2019-03-11T11:25:31.420Z,99055.52
2019-03-11T11:27:59.856Z,99046.78
2019-03-11T11:30:32.070Z,99051.73
2019-03-11T11:33:00.436Z,99066.80
2019-03-11T11:35:28.915Z,99068.70
2019-03-11T11:37:57.547Z,99064.98
2019-03-11T11:40:29.398Z,99080.97
2019-03-11T11:42:57.877Z,99075.46
2019-03-11T11:45:28.567Z,99080.09
2019-03-11T11:47:57.000Z,99080.80
2019-03-11T11:50:26.036Z,99076.58
2019-03-11T11:52:54.656Z,99083.72
2019-03-11T11:55:23.873Z,99089.00
2019-03-11T11:57:52.643Z,99087.50
2019-03-11T12:00:30.449Z,99091.44
2019-03-11T12:02:59.083Z,99086.58
2019-03-11T12:05:27.461Z,99082.72
2019-03-11T12:07:55.905Z,99080.38
2019-03-11T12:10:25.525Z,99081.02
2019-03-11T12:12:54.128Z,99081.40
2019-03-11T12:15:22.511Z,99082.98
2019-03-11T12:17:51.245Z,99076.70
2019-03-11T12:20:25.021Z,99091.64
2019-03-11T12:22:53.386Z,99092.95
2019-03-11T12:25:21.894Z,99096.45
2019-03-11T12:27:54.238Z,99110.48
2019-03-11T12:30:26.080Z,99095.58
2019-03-11T12:32:54.812Z,99075.45
2019-03-11T12:35:23.309Z,99085.00
2019-03-11T12:37:51.870Z,99072.09
2019-03-11T12:40:20.609Z,99087.13
2019-03-11T12:42:49.006Z,99091.88
2019-03-11T12:45:22.423Z,99081.19
2019-03-11T12:47:51.056Z,99094.83
2019-03-11T12:50:28.121Z,99093.84
2019-03-11T12:52:56.668Z,99111.56
2019-03-11T12:55:25.193Z,99107.30
2019-03-11T12:57:53.710Z,99090.52
2019-03-11T13:00:22.942Z,99117.87
2019-03-11T13:02:51.700Z,99107.28
2019-03-11T13:05:20.895Z,99132.29
2019-03-11T13:07:49.438Z,99136.77
2019-03-11T13:10:19.843Z,99133.53
2019-03-11T13:12:48.560Z,99135.83
2019-03-11T13:15:17.540Z,99121.19
2019-03-11T13:17:46.261Z,99128.09
2019-03-11T13:20:23.567Z,99141.02
2019-03-11T13:22:52.315Z,99141.72
2019-03-11T13:25:20.988Z,99156.20
2019-03-11T13:27:49.512Z,99151.36
2019-03-11T13:30:18.114Z,99141.26
2019-03-11T13:32:46.527Z,99141.66
2019-03-11T13:35:15.017Z,99151.73
2019-03-11T13:37:43.402Z,99154.82
2019-03-11T13:40:13.120Z,99160.41
2019-03-11T13:42:41.563Z,99164.94
2019-03-11T13:45:12.408Z,99148.78
2019-03-11T13:47:40.853Z,99163.09
2019-03-11T13:50:11.450Z,99159.34
2019-03-11T13:52:39.997Z,99170.97
2019-03-11T13:55:13.015Z,99163.14
2019-03-11T13:57:41.472Z,99159.39
2019-03-11T14:00:15.378Z,99171.41
2019-03-11T14:02:43.768Z,99176.88
2019-03-11T14:05:12.519Z,99162.52
2019-03-11T14:07:40.922Z,99164.80
2019-03-11T14:10:10.871Z,99166.59
2019-03-11T14:12:39.222Z,99185.57
2019-03-11T14:15:20.729Z,99179.64
2019-03-11T14:17:49.133Z,99183.61
2019-03-11T14:20:17.478Z,99181.28
2019-03-11T14:22:45.855Z,99189.80
2019-03-11T14:25:14.859Z,99176.69
2019-03-11T14:27:43.248Z,99189.55
2019-03-11T14:30:20.066Z,99172.36
2019-03-11T14:32:48.450Z,99187.83
2019-03-11T14:35:16.828Z,99184.36
2019-03-11T14:37:45.216Z,99193.72
2019-03-11T14:40:14.622Z,99171.83
2019-03-11T14:42:42.982Z,99207.87
2019-03-11T14:45:18.688Z,99210.98
2019-03-11T14:47:47.237Z,99206.20
2019-03-11T14:50:16.549Z,99189.48
2019-03-11T14:52:44.925Z,99193.08
2019-03-11T14:55:14.346Z,99224.06
2019-03-11T14:57:43.298Z,99209.52
2019-03-11T15:00:18.493Z,99217.45
2019-03-11T15:02:47.228Z,99231.13
2019-03-11T15:05:17.749Z,99232.84
2019-03-11T15:07:46.290Z,99215.73
2019-03-11T15:10:16.533Z,99225.48
2019-03-11T15:12:44.859Z,99234.73
2019-03-11T15:15:18.615Z,99235.77
2019-03-11T15:17:47.076Z,99235.67
2019-03-11T15:20:15.902Z,99223.87
2019-03-11T15:22:44.368Z,99220.38
2019-03-11T15:25:14.491Z,99227.27
2019-03-11T15:27:42.854Z,99229.45
2019-03-11T15:30:14.276Z,99233.42
2019-03-11T15:32:42.656Z,99231.70
2019-03-11T15:35:11.576Z,99227.84
2019-03-11T15:37:39.955Z,99236.63
2019-03-11T15:40:13.557Z,99248.99
2019-03-11T15:42:41.938Z,99253.92
2019-03-11T15:45:12.869Z,99252.10
2019-03-11T15:47:41.250Z,99256.56
2019-03-11T15:50:22.025Z,99244.66
2019-03-11T15:52:50.416Z,99241.52
2019-03-11T15:55:18.866Z,99232.88
2019-03-11T15:57:47.313Z,99248.73
2019-03-11T16:00:21.481Z,99232.02
2019-03-11T16:02:50.099Z,99248.73
2019-03-11T16:05:23.059Z,99252.31
2019-03-11T16:07:52.244Z,99262.88
2019-03-11T16:10:20.789Z,99260.81
2019-03-11T16:12:50.204Z,99270.45
2019-03-11T16:15:18.834Z,99262.98
2019-03-11T16:17:47.552Z,99255.16
2019-03-11T16:20:18.926Z,99257.80
2019-03-11T16:22:47.643Z,99267.16
2019-03-11T16:25:16.093Z,99272.91
2019-03-11T16:27:44.477Z,99270.77
2019-03-11T16:30:39.940Z,99276.05
2019-03-11T16:33:08.384Z,99274.91
2019-03-11T16:35:36.841Z,99296.16
2019-03-11T16:38:05.235Z,99286.44
2019-03-11T16:40:33.854Z,99298.44
2019-03-11T16:43:02.355Z,99298.05
2019-03-11T16:45:30.984Z,99296.72
2019-03-11T16:47:59.360Z,99299.36
2019-03-11T16:50:28.107Z,99317.51
2019-03-11T16:52:56.560Z,99295.04
2019-03-11T16:55:26.854Z,99301.75
2019-03-11T16:57:55.306Z,99312.78
2019-03-11T17:00:25.553Z,99302.22
2019-03-11T17:02:53.960Z,99308.06
2019-03-11T17:05:22.494Z,99318.07
2019-03-11T17:07:50.967Z,99324.31
2019-03-11T17:10:20.881Z,99331.39
2019-03-11T17:12:49.263Z,99325.34
2019-03-11T17:15:17.819Z,99346.48
2019-03-11T17:17:46.273Z,99340.84
2019-03-11T17:20:16.861Z,99343.48
2019-03-11T17:22:45.581Z,99370.77
2019-03-11T17:25:14.686Z,99377.44
2019-03-11T17:27:43.220Z,99376.98
2019-03-11T17:30:14.539Z,99372.09
2019-03-11T17:32:42.911Z,99385.30
2019-03-11T17:35:11.473Z,99389.99
2019-03-11T17:37:39.938Z,99410.77
2019-03-11T17:40:11.371Z,99420.13
2019-03-11T17:42:39.827Z,99406.52
2019-03-11T17:45:11.080Z,99416.36
2019-03-11T17:47:39.463Z,99432.22
2019-03-11T17:50:11.057Z,99443.91
2019-03-11T17:52:39.595Z,99450.05
2019-03-11T17:55:10.282Z,99467.59
2019-03-11T17:57:38.798Z,99457.78
2019-03-11T18:00:12.056Z,99457.68
2019-03-11T18:02:40.512Z,99463.73
2019-03-11T18:05:09.057Z,99474.56
2019-03-11T18:07:37.796Z,99486.27
2019-03-11T18:10:08.508Z,99493.53
2019-03-11T18:12:37.065Z,99500.80
2019-03-11T18:15:07.690Z,99508.94
2019-03-11T18:17:36.143Z,99506.66
2019-03-11T18:20:21.226Z,99512.34
2019-03-11T18:22:49.688Z,99512.80
2019-03-11T18:25:21.593Z,99526.02
2019-03-11T18:27:50.043Z,99523.84
2019-03-11T18:30:23.370Z,99536.23
2019-03-11T18:32:51.830Z,99533.75
2019-03-11T18:35:20.199Z,99534.14
2019-03-11T18:37:48.579Z,99538.58
2019-03-11T18:40:18.132Z,99547.36
2019-03-11T18:42:46.558Z,99549.52
2019-03-11T18:45:15.826Z,99553.98
2019-03-11T18:47:44.439Z,99548.69
2019-03-11T18:50:21.756Z,99552.75
2019-03-11T18:52:50.116Z,99557.94
2019-03-11T18:55:18.522Z,99543.77
2019-03-11T18:57:47.103Z,99550.84
2019-03-11T19:00:18.448Z,99563.50
2019-03-11T19:02:46.996Z,99567.86
2019-03-11T19:05:19.824Z,99565.28
2019-03-11T19:07:48.229Z,99573.22
2019-03-11T19:10:16.718Z,99576.92
2019-03-11T19:12:45.421Z,99589.19
2019-03-11T19:15:21.217Z,99586.54
2019-03-11T19:17:49.661Z,99587.30
2019-03-11T19:20:19.698Z,99589.58
2019-03-11T19:22:48.438Z,99601.38
2019-03-11T19:25:17.316Z,99592.03
2019-03-11T19:27:46.160Z,99601.28
2019-03-11T19:30:17.249Z,99587.97
2019-03-11T19:32:45.833Z,99601.95
2019-03-11T19:35:14.967Z,99583.53
2019-03-11T19:37:43.350Z,99614.77
2019-03-11T19:40:14.844Z,99624.52
2019-03-11T19:42:43.160Z,99629.81
2019-03-11T19:45:16.105Z,99640.85
2019-03-11T19:47:44.472Z,99663.42
2019-03-11T19:50:15.906Z,99668.72
2019-03-11T19:52:57.235Z,99662.47
2019-03-11T19:55:14.667Z,99675.33
2019-03-11T19:57:43.011Z,99687.59
2019-03-11T20:00:17.415Z,99683.63
2019-03-11T20:02:45.735Z,99686.27
2019-03-11T20:05:16.596Z,99691.75
2019-03-11T20:07:44.990Z,99691.29
2019-03-11T20:10:13.822Z,99685.14
2019-03-11T20:12:42.143Z,99695.72
2019-03-11T20:15:11.972Z,99692.33
2019-03-11T20:17:40.456Z,99695.37
2019-03-11T20:20:14.600Z,99697.61
2019-03-11T20:22:43.084Z,99698.47
2019-03-11T20:25:19.754Z,99709.32
2019-03-11T20:27:48.269Z,99711.80
2019-03-11T20:30:19.716Z,99721.05
2019-03-11T20:32:48.288Z,99720.64
2019-03-11T20:35:17.805Z,99726.03
2019-03-11T20:37:46.475Z,99723.39
2019-03-11T20:40:15.104Z,99726.89
2019-03-11T20:42:43.578Z,99730.86
2019-03-11T20:45:20.079Z,99729.08
2019-03-11T20:47:48.427Z,99737.74
2019-03-11T20:50:17.751Z,99734.36
2019-03-11T20:52:46.311Z,99743.72
2019-03-11T20:55:20.929Z,99751.06
2019-03-11T20:57:49.339Z,99746.73
2019-03-11T21:00:22.573Z,99751.65
2019-03-11T21:02:51.163Z,99738.86
2019-03-11T21:05:46.736Z,99754.84
2019-03-11T21:08:15.134Z,99754.84
2019-03-11T21:10:43.502Z,99761.05
2019-03-11T21:13:11.908Z,99763.79
2019-03-11T21:15:40.312Z,99762.97
2019-03-11T21:18:08.728Z,99768.62
2019-03-11T21:20:37.154Z,99760.69
2019-03-11T21:23:05.606Z,99773.05
2019-03-11T21:25:34.106Z,99763.42
2019-03-11T21:28:02.576Z,99769.17
2019-03-11T21:30:31.041Z,99772.28
2019-03-11T21:32:59.389Z,99769.27
2019-03-11T21:35:28.004Z,99777.30
2019-03-11T21:37:56.503Z,99784.77
2019-03-11T21:40:25.244Z,99785.31
2019-03-11T21:42:54.632Z,99786.14
2019-03-11T21:45:33.465Z,99795.40
2019-03-11T21:47:53.103Z,99796.72
2019-03-11T21:50:23.556Z,99798.05
2019-03-11T21:52:52.074Z,99799.45
2019-03-11T21:55:20.548Z,99795.58
2019-03-11T21:57:48.902Z,99793.89
2019-03-11T22:00:34.087Z,99790.30
2019-03-11T22:02:53.357Z,99798.31
2019-03-11T22:05:21.787Z,99801.91
2019-03-11T22:07:50.341Z,99805.48
2019-03-11T22:10:19.149Z,99808.22
2019-03-11T22:12:47.545Z,99809.53
2019-03-11T22:15:17.754Z,99817.09
2019-03-11T22:17:46.152Z,99817.65
2019-03-11T22:20:17.876Z,99817.28
2019-03-11T22:22:46.416Z,99818.97
2019-03-11T22:25:15.625Z,99820.84
2019-03-11T22:27:44.068Z,99821.39
2019-03-11T22:30:20.592Z,99828.00
2019-03-11T22:32:48.972Z,99819.70
2019-03-11T22:35:17.677Z,99826.40
2019-03-11T22:37:46.061Z,99824.30
2019-03-11T22:40:15.771Z,99826.48
2019-03-11T22:42:44.219Z,99823.45
2019-03-11T22:45:18.612Z,99826.17
2019-03-11T22:47:47.001Z,99822.77
2019-03-11T22:50:17.900Z,99821.44
2019-03-11T22:52:45.921Z,99829.00
2019-03-11T22:55:15.231Z,99825.13
2019-03-11T22:57:43.611Z,99820.79
2019-03-11T23:00:24.684Z,99829.17
2019-03-11T23:02:53.061Z,99833.23
2019-03-11T23:05:21.671Z,99833.32
2019-03-11T23:07:50.048Z,99832.05
2019-03-11T23:10:18.419Z,99828.09
2019-03-11T23:12:46.823Z,99821.58
2019-03-11T23:15:15.194Z,99822.61
2019-03-11T23:17:43.581Z,99822.61
2019-03-11T23:20:12.029Z,99822.21
2019-03-11T23:22:40.389Z,99815.23
2019-03-11T23:25:08.949Z,99814.78
2019-03-11T23:27:37.305Z,99809.17
2019-03-11T23:30:08.841Z,99807.48
2019-03-11T23:32:37.486Z,99809.73
2019-03-11T23:35:06.598Z,99819.55
2019-03-11T23:37:34.969Z,99821.79
2019-03-11T23:40:03.821Z,99829.80
2019-03-11T23:42:32.190Z,99834.63
2019-03-11T23:45:00.574Z,99829.89
2019-03-11T23:47:28.945Z,99830.84
2019-03-11T23:49:57.326Z,99822.94
2019-03-11T23:52:25.691Z,99824.75
2019-03-11T23:54:54.067Z,99810.77
2019-03-11T23:57:22.435Z,99810.41
2019-03-11T23:59:50.826Z,99804.72
